createdAt,value
2018-09-15T00:00:53.115Z,76.60
2018-09-15T00:03:23.354Z,76.50
2018-09-15T00:05:52.524Z,76.98
2018-09-15T00:08:22.444Z,76.80
2018-09-15T00:10:52.360Z,77.70
2018-09-15T00:13:23.020Z,77.82
2018-09-15T00:15:51.874Z,77.57
2018-09-15T00:18:20.780Z,77.90
2018-09-15T00:20:49.778Z,77.94
2018-09-15T00:23:19.690Z,77.85
2018-09-15T00:25:49.620Z,77.34
2018-09-15T00:28:19.527Z,77.80
2018-09-15T00:30:48.420Z,78.01
2018-09-15T00:33:17.406Z,77.58
2018-09-15T00:35:47.296Z,78.21
2018-09-15T00:38:16.165Z,78.18
2018-09-15T00:40:45.092Z,78.74
2018-09-15T00:43:15.044Z,78.54
2018-09-15T00:45:43.936Z,78.40
2018-09-15T00:48:12.909Z,79.05
2018-09-15T00:50:42.812Z,79.04
2018-09-15T00:53:11.693Z,78.59
2018-09-15T00:55:40.774Z,78.18
2018-09-15T00:58:09.674Z,78.95
2018-09-15T01:00:39.803Z,78.98
2018-09-15T01:03:08.702Z,78.95
2018-09-15T01:05:37.717Z,78.92
2018-09-15T01:08:06.708Z,79.54
2018-09-15T01:10:35.676Z,79.55
2018-09-15T01:13:05.651Z,79.32
2018-09-15T01:15:34.610Z,79.10
2018-09-15T01:18:03.855Z,79.15
2018-09-15T01:20:32.785Z,79.34
2018-09-15T01:23:01.828Z,79.12
2018-09-15T01:25:30.786Z,79.72
2018-09-15T01:27:59.822Z,79.07
2018-09-15T01:30:28.725Z,79.31
2018-09-15T01:32:57.653Z,79.39
2018-09-15T01:35:26.616Z,79.10
2018-09-15T01:37:56.035Z,79.50
2018-09-15T01:40:25.095Z,79.81
2018-09-15T01:42:54.002Z,78.94
2018-09-15T01:45:23.996Z,79.06
2018-09-15T01:47:53.968Z,78.67
2018-09-15T01:50:22.937Z,79.38
2018-09-15T01:52:51.892Z,79.48
2018-09-15T01:55:20.906Z,78.96
2018-09-15T01:57:49.829Z,79.57
2018-09-15T02:00:18.735Z,78.35
2018-09-15T02:02:47.673Z,77.97
2018-09-15T02:05:16.653Z,78.05
2018-09-15T02:07:45.576Z,78.23
2018-09-15T02:10:15.708Z,79.10
2018-09-15T02:12:44.608Z,79.05
2018-09-15T02:15:13.607Z,79.66
2018-09-15T02:17:42.508Z,78.76
2018-09-15T02:20:11.798Z,79.55
2018-09-15T02:22:40.835Z,79.52
2018-09-15T02:25:09.827Z,80.18
2018-09-15T02:27:39.808Z,79.22
2018-09-15T02:30:08.819Z,80.21
2018-09-15T02:32:37.799Z,80.33
2018-09-15T02:35:07.695Z,80.21
2018-09-15T02:37:37.705Z,80.58
2018-09-15T02:40:06.678Z,80.31
2018-09-15T02:42:35.585Z,80.88
2018-09-15T02:45:04.599Z,80.70
2018-09-15T02:47:33.572Z,81.14
2018-09-15T02:50:02.700Z,80.06
2018-09-15T02:52:31.676Z,79.88
2018-09-15T02:55:00.677Z,80.98
2018-09-15T02:57:30.581Z,80.61
2018-09-15T02:59:59.449Z,79.86
2018-09-15T03:02:28.338Z,81.37
2018-09-15T03:04:57.422Z,81.47
2018-09-15T03:07:26.419Z,81.55
2018-09-15T03:09:55.328Z,80.95
2018-09-15T03:12:24.244Z,81.70
2018-09-15T03:14:53.254Z,81.02
2018-09-15T03:17:22.207Z,80.63
2018-09-15T03:19:51.129Z,81.35
2018-09-15T03:22:21.066Z,81.23
2018-09-15T03:24:50.036Z,81.58
2018-09-15T03:27:19.025Z,81.87
2018-09-15T03:29:48.921Z,81.86
2018-09-15T03:32:18.867Z,82.19
2018-09-15T03:34:47.856Z,81.57
2018-09-15T03:37:17.006Z,82.06
2018-09-15T03:39:46.922Z,81.29
2018-09-15T03:42:15.877Z,81.29
2018-09-15T03:44:44.848Z,82.39
2018-09-15T03:47:13.744Z,82.71
2018-09-15T03:49:42.704Z,82.23
2018-09-15T03:52:11.655Z,82.59
2018-09-15T03:54:40.596Z,81.91
2018-09-15T03:57:09.535Z,83.09
2018-09-15T03:59:38.535Z,83.08
2018-09-15T04:02:07.538Z,83.15
2018-09-15T04:04:36.443Z,82.89
2018-09-15T04:07:05.360Z,82.88
2018-09-15T04:09:35.329Z,83.51
2018-09-15T04:12:06.239Z,83.54
2018-09-15T04:14:35.418Z,83.98
2018-09-15T04:17:04.291Z,84.01
2018-09-15T04:19:33.169Z,83.92
2018-09-15T04:22:02.607Z,84.15
2018-09-15T04:24:31.593Z,84.92
2018-09-15T04:27:01.527Z,85.13
2018-09-15T04:29:30.512Z,85.22
2018-09-15T04:32:00.542Z,84.76
2018-09-15T04:34:29.543Z,84.77
2018-09-15T04:36:58.500Z,84.81
2018-09-15T04:39:27.411Z,84.79
2018-09-15T04:41:57.345Z,84.09
2018-09-15T04:44:26.311Z,84.31
2018-09-15T04:46:55.274Z,84.70
2018-09-15T04:49:24.235Z,84.22
2018-09-15T04:51:54.117Z,84.15
2018-09-15T04:54:23.111Z,84.58
2018-09-15T04:56:52.095Z,85.63
2018-09-15T04:59:22.032Z,85.31
2018-09-15T05:01:50.982Z,85.07
2018-09-15T05:04:20.105Z,85.34
2018-09-15T05:06:49.102Z,86.04
2018-09-15T05:09:18.117Z,85.75
2018-09-15T05:11:47.575Z,86.08
2018-09-15T05:14:16.992Z,86.27
2018-09-15T05:16:45.892Z,86.20
2018-09-15T05:19:15.763Z,85.28
2018-09-15T05:21:44.750Z,86.02
2018-09-15T05:24:13.690Z,85.43
2018-09-15T05:26:43.596Z,85.38
2018-09-15T05:29:13.509Z,85.92
2018-09-15T05:31:43.468Z,85.44
2018-09-15T05:34:12.421Z,86.04
2018-09-15T05:36:41.304Z,85.97
2018-09-15T05:39:12.767Z,86.15
2018-09-15T05:41:43.639Z,86.23
2018-09-15T05:44:12.652Z,86.30
2018-09-15T05:46:42.570Z,85.91
2018-09-15T05:49:11.524Z,86.18
2018-09-15T05:51:40.558Z,86.63
2018-09-15T05:54:10.540Z,85.95
2018-09-15T05:56:39.687Z,87.02
2018-09-15T05:59:08.632Z,86.41
2018-09-15T06:01:37.630Z,86.18
2018-09-15T06:04:06.595Z,86.20
2018-09-15T06:06:35.648Z,87.07
2018-09-15T06:09:06.756Z,87.31
2018-09-15T06:11:36.883Z,87.43
2018-09-15T06:14:05.959Z,87.40
2018-09-15T06:16:34.964Z,86.88
2018-09-15T06:19:04.059Z,85.42
2018-09-15T06:21:33.147Z,86.72
2018-09-15T06:24:02.655Z,87.27
2018-09-15T06:26:33.232Z,86.78
2018-09-15T06:29:02.155Z,85.96
2018-09-15T06:31:32.119Z,87.05
2018-09-15T06:34:02.090Z,86.61
2018-09-15T06:36:32.071Z,85.77
2018-09-15T06:39:00.992Z,86.41
2018-09-15T06:41:30.201Z,85.76
2018-09-15T06:43:59.176Z,85.12
2018-09-15T06:46:28.428Z,85.58
2018-09-15T06:48:57.416Z,86.54
2018-09-15T06:51:26.381Z,85.22
2018-09-15T06:53:58.394Z,85.42
2018-09-15T06:56:28.393Z,86.01
2018-09-15T06:58:57.372Z,85.73
2018-09-15T07:01:26.456Z,85.32
2018-09-15T07:03:55.452Z,84.95
2018-09-15T07:06:24.406Z,85.00
2018-09-15T07:08:53.549Z,84.66
2018-09-15T07:11:23.441Z,85.03
2018-09-15T07:13:53.335Z,84.77
2018-09-15T07:16:22.222Z,84.49
2018-09-15T07:18:51.277Z,84.54
2018-09-15T07:21:20.256Z,84.08
2018-09-15T07:23:51.148Z,84.72
2018-09-15T07:26:20.098Z,85.06
2018-09-15T07:28:49.098Z,84.32
2018-09-15T07:31:18.222Z,84.24
2018-09-15T07:33:47.185Z,84.10
2018-09-15T07:36:17.377Z,83.85
2018-09-15T07:38:46.364Z,83.97
2018-09-15T07:41:15.314Z,84.13
2018-09-15T07:43:44.233Z,84.35
2018-09-15T07:46:14.283Z,84.25
2018-09-15T07:48:43.250Z,84.14
2018-09-15T07:51:12.122Z,84.24
2018-09-15T07:53:41.025Z,83.71
2018-09-15T07:56:10.199Z,82.89
2018-09-15T07:58:39.201Z,83.87
2018-09-15T08:01:08.077Z,84.03
2018-09-15T08:03:37.127Z,84.03
2018-09-15T08:06:06.197Z,84.20
2018-09-15T08:08:35.104Z,83.72
2018-09-15T08:11:05.006Z,83.79
2018-09-15T08:13:34.935Z,83.82
2018-09-15T08:16:04.314Z,84.42
2018-09-15T08:18:33.319Z,83.94
2018-09-15T08:21:02.595Z,84.02
2018-09-15T08:23:31.510Z,83.50
2018-09-15T08:26:01.462Z,83.31
2018-09-15T08:28:31.479Z,83.10
2018-09-15T08:31:00.643Z,83.35
2018-09-15T08:33:29.527Z,82.97
2018-09-15T08:35:59.575Z,83.13
2018-09-15T08:38:28.587Z,83.05
2018-09-15T08:40:57.528Z,83.20
2018-09-15T08:43:27.414Z,83.52
2018-09-15T08:45:56.346Z,83.62
2018-09-15T08:48:25.284Z,83.39
2018-09-15T08:50:54.267Z,83.38
2018-09-15T08:53:24.300Z,82.99
2018-09-15T08:55:54.256Z,83.39
2018-09-15T08:58:23.143Z,83.30
2018-09-15T09:00:52.180Z,83.34
2018-09-15T09:03:22.244Z,83.36
2018-09-15T09:05:53.795Z,82.78
2018-09-15T09:08:24.623Z,83.63
2018-09-15T09:10:53.555Z,82.94
2018-09-15T09:13:23.478Z,82.55
2018-09-15T09:15:52.593Z,83.07
2018-09-15T09:18:21.725Z,82.44
2018-09-15T09:20:50.804Z,82.39
2018-09-15T09:23:19.734Z,81.62
2018-09-15T09:25:49.646Z,82.07
2018-09-15T09:28:18.559Z,81.65
2018-09-15T09:30:47.535Z,81.30
2018-09-15T09:33:16.690Z,81.37
2018-09-15T09:35:45.902Z,80.37
2018-09-15T09:38:14.887Z,80.67
2018-09-15T09:40:43.805Z,80.03
2018-09-15T09:43:13.779Z,79.89
2018-09-15T09:45:43.669Z,80.07
2018-09-15T09:48:12.695Z,79.01
2018-09-15T09:50:41.943Z,78.90
2018-09-15T09:53:10.946Z,79.03
2018-09-15T09:55:40.837Z,78.44
2018-09-15T09:58:10.791Z,79.60
2018-09-15T10:00:45.178Z,79.32
2018-09-15T10:03:15.449Z,78.23
2018-09-15T10:05:44.393Z,77.00
2018-09-15T10:08:13.274Z,74.50
2018-09-15T10:10:42.175Z,72.61
2018-09-15T10:13:11.442Z,72.57
2018-09-15T10:15:41.978Z,72.98
2018-09-15T10:18:12.688Z,73.50
2018-09-15T10:20:42.642Z,72.22
2018-09-15T10:23:12.600Z,71.85
2018-09-15T10:25:41.691Z,69.12
2018-09-15T10:28:10.568Z,68.96
2018-09-15T10:30:39.661Z,67.53
2018-09-15T10:33:09.608Z,68.20
2018-09-15T10:35:39.644Z,68.60
2018-09-15T10:38:08.640Z,67.98
2018-09-15T10:40:37.603Z,68.37
2018-09-15T10:43:06.648Z,68.09
2018-09-15T10:45:35.599Z,68.98
2018-09-15T10:48:04.542Z,68.55
2018-09-15T10:50:34.491Z,68.60
2018-09-15T10:53:03.458Z,68.59
2018-09-15T10:55:33.350Z,68.88
2018-09-15T10:58:02.278Z,69.56
2018-09-15T11:00:31.381Z,69.35
2018-09-15T11:03:00.258Z,66.17
2018-09-15T11:05:29.244Z,63.97
2018-09-15T11:07:59.214Z,62.38
2018-09-15T11:10:28.293Z,62.61
2018-09-15T11:12:57.237Z,63.07
2018-09-15T11:15:27.159Z,62.26
2018-09-15T11:17:56.278Z,62.95
2018-09-15T11:20:26.174Z,63.88
2018-09-15T11:22:55.312Z,60.85
2018-09-15T11:25:24.648Z,60.39
2018-09-15T11:27:54.344Z,59.59
2018-09-15T11:30:23.355Z,59.81
2018-09-15T11:32:52.377Z,59.11
2018-09-15T11:35:22.879Z,59.75
2018-09-15T11:37:52.296Z,60.13
2018-09-15T11:40:23.033Z,59.26
2018-09-15T11:42:54.422Z,59.45
2018-09-15T11:45:23.373Z,58.52
2018-09-15T11:47:52.654Z,59.32
2018-09-15T11:50:22.576Z,58.02
2018-09-15T11:52:51.521Z,58.25
2018-09-15T11:55:20.482Z,58.12
2018-09-15T11:57:50.568Z,58.16
2018-09-15T12:00:23.153Z,59.03
2018-09-15T12:02:52.098Z,59.83
2018-09-15T12:05:21.127Z,60.53
2018-09-15T12:07:50.135Z,59.79
2018-09-15T12:10:19.046Z,59.66
2018-09-15T12:12:49.374Z,59.00
2018-09-15T12:15:18.705Z,58.13
2018-09-15T12:17:47.800Z,58.95
2018-09-15T12:20:17.724Z,59.68
2018-09-15T12:22:47.643Z,59.89
2018-09-15T12:25:16.555Z,59.73
2018-09-15T12:27:46.700Z,60.43
2018-09-15T12:30:15.761Z,62.51
2018-09-15T12:32:44.713Z,63.86
2018-09-15T12:35:13.707Z,64.38
2018-09-15T12:37:43.606Z,64.94
2018-09-15T12:40:12.611Z,65.66
2018-09-15T12:42:42.520Z,65.75
2018-09-15T12:45:12.505Z,66.08
2018-09-15T12:47:41.389Z,66.09
2018-09-15T12:50:10.352Z,67.03
2018-09-15T12:52:40.322Z,65.98
2018-09-15T12:55:09.209Z,65.36
2018-09-15T12:57:39.253Z,64.95
2018-09-15T13:00:08.128Z,63.56
2018-09-15T13:02:37.087Z,62.52
2018-09-15T13:05:06.023Z,62.29
2018-09-15T13:07:35.930Z,62.55
2018-09-15T13:10:05.265Z,62.85
2018-09-15T13:12:34.271Z,62.84
2018-09-15T13:15:04.266Z,62.50
2018-09-15T13:17:34.288Z,62.76
2018-09-15T13:20:03.263Z,62.92
2018-09-15T13:22:32.437Z,62.00
2018-09-15T13:25:01.345Z,61.95
2018-09-15T13:27:31.334Z,62.10
2018-09-15T13:30:00.339Z,62.46
2018-09-15T13:32:29.287Z,62.91
2018-09-15T13:34:58.449Z,62.61
2018-09-15T13:37:28.311Z,62.75
2018-09-15T13:39:57.228Z,62.56
2018-09-15T13:42:27.162Z,62.85
2018-09-15T13:44:57.191Z,62.18
2018-09-15T13:47:26.146Z,61.96
2018-09-15T13:49:55.246Z,64.26
2018-09-15T13:52:26.208Z,64.53
2018-09-15T13:54:55.090Z,63.41
2018-09-15T13:57:23.990Z,63.09
2018-09-15T13:59:54.961Z,63.46
2018-09-15T14:02:24.952Z,62.88
2018-09-15T14:04:54.010Z,63.45
2018-09-15T14:07:23.850Z,63.67
2018-09-15T14:09:53.760Z,64.82
2018-09-15T14:12:23.706Z,63.82
2018-09-15T14:14:52.680Z,63.84
2018-09-15T14:17:21.677Z,63.22
2018-09-15T14:19:50.661Z,62.63
2018-09-15T14:22:19.729Z,63.10
2018-09-15T14:24:48.649Z,62.86
2018-09-15T14:27:18.548Z,62.36
2018-09-15T14:29:48.847Z,61.48
2018-09-15T14:32:17.778Z,61.44
2018-09-15T14:34:47.002Z,62.28
2018-09-15T14:37:17.136Z,61.94
2018-09-15T14:39:46.098Z,61.56
2018-09-15T14:42:15.984Z,61.04
2018-09-15T14:44:44.889Z,60.94
2018-09-15T14:47:14.796Z,59.61
2018-09-15T14:49:44.785Z,59.80
2018-09-15T14:52:13.780Z,58.83
2018-09-15T14:54:43.737Z,58.12
2018-09-15T14:57:12.611Z,58.48
2018-09-15T14:59:42.614Z,58.79
2018-09-15T15:02:11.559Z,59.09
2018-09-15T15:04:40.546Z,58.76
2018-09-15T15:07:09.529Z,59.06
2018-09-15T15:09:39.780Z,58.67
2018-09-15T15:12:10.687Z,58.59
2018-09-15T15:14:39.616Z,59.55
2018-09-15T15:17:09.278Z,59.30
2018-09-15T15:19:39.458Z,59.75
2018-09-15T15:22:09.381Z,58.01
2018-09-15T15:24:38.340Z,57.46
2018-09-15T15:27:07.403Z,56.48
2018-09-15T15:29:37.364Z,56.98
2018-09-15T15:32:06.681Z,56.43
2018-09-15T15:34:36.823Z,57.03
2018-09-15T15:37:05.961Z,56.03
2018-09-15T15:39:34.967Z,56.02
2018-09-15T15:42:03.945Z,56.37
2018-09-15T15:44:33.133Z,56.06
2018-09-15T15:47:03.446Z,58.28
2018-09-15T15:49:33.049Z,56.48
2018-09-15T15:52:03.884Z,56.59
2018-09-15T15:54:32.893Z,56.13
2018-09-15T15:57:01.970Z,56.63
2018-09-15T15:59:30.939Z,56.73
2018-09-15T16:01:59.842Z,56.87
2018-09-15T16:04:28.833Z,57.29
2018-09-15T16:06:57.722Z,57.48
2018-09-15T16:09:26.651Z,57.52
2018-09-15T16:11:56.603Z,57.23
2018-09-15T16:14:25.545Z,57.09
2018-09-15T16:16:55.491Z,56.72
2018-09-15T16:19:24.456Z,59.25
2018-09-15T16:21:54.370Z,56.35
2018-09-15T16:24:24.288Z,56.35
2018-09-15T16:26:53.311Z,57.02
2018-09-15T16:29:23.292Z,56.80
2018-09-15T16:31:52.211Z,56.85
2018-09-15T16:34:21.159Z,57.11
2018-09-15T16:36:50.112Z,57.43
2018-09-15T16:39:19.083Z,56.96
2018-09-15T16:41:48.095Z,57.00
2018-09-15T16:44:17.087Z,57.20
2018-09-15T16:46:47.124Z,57.22
2018-09-15T16:49:16.106Z,57.56
2018-09-15T16:51:44.946Z,58.38
2018-09-15T16:54:13.887Z,58.46
2018-09-15T16:56:42.870Z,58.51
2018-09-15T16:59:11.825Z,58.81
2018-09-15T17:01:40.766Z,59.30
2018-09-15T17:04:09.704Z,59.43
2018-09-15T17:06:39.633Z,59.35
2018-09-15T17:09:10.078Z,59.35
2018-09-15T17:11:39.062Z,59.02
2018-09-15T17:14:10.025Z,59.40
2018-09-15T17:16:39.110Z,59.27
2018-09-15T17:19:08.048Z,59.17
2018-09-15T17:21:36.956Z,59.44
2018-09-15T17:24:05.892Z,59.48
2018-09-15T17:26:35.927Z,59.75
2018-09-15T17:29:04.937Z,59.56
2018-09-15T17:31:33.848Z,61.77
2018-09-15T17:34:02.779Z,62.37
2018-09-15T17:36:32.669Z,62.87
2018-09-15T17:39:01.666Z,62.80
2018-09-15T17:41:31.624Z,63.20
2018-09-15T17:44:00.563Z,64.15
2018-09-15T17:46:30.526Z,64.62
2018-09-15T17:48:59.513Z,64.36
2018-09-15T17:51:29.587Z,64.32
2018-09-15T17:53:59.568Z,64.66
2018-09-15T17:56:28.528Z,65.80
2018-09-15T17:58:57.505Z,67.07
2018-09-15T18:01:27.398Z,67.23
2018-09-15T18:03:57.333Z,67.85
2018-09-15T18:06:26.261Z,68.23
2018-09-15T18:08:55.216Z,68.17
2018-09-15T18:11:24.456Z,68.27
2018-09-15T18:13:53.402Z,68.94
2018-09-15T18:16:22.373Z,69.04
2018-09-15T18:19:20.859Z,69.82
2018-09-15T18:21:49.813Z,70.56
2018-09-15T18:24:19.713Z,70.23
2018-09-15T18:26:49.670Z,70.76
2018-09-15T18:29:18.868Z,70.87
2018-09-15T18:31:47.856Z,70.64
2018-09-15T18:34:16.823Z,71.16
2018-09-15T18:36:46.943Z,71.61
2018-09-15T18:39:16.720Z,71.81
2018-09-15T18:41:46.638Z,71.84
2018-09-15T18:44:15.737Z,71.75
2018-09-15T18:46:44.740Z,72.35
2018-09-15T18:49:13.777Z,72.35
2018-09-15T18:51:42.732Z,72.50
2018-09-15T18:54:11.717Z,73.39
2018-09-15T18:56:40.744Z,72.81
2018-09-15T18:59:09.712Z,73.80
2018-09-15T19:01:39.648Z,73.89
2018-09-15T19:04:09.599Z,74.42
2018-09-15T19:06:39.585Z,74.18
2018-09-15T19:09:10.920Z,74.92
2018-09-15T19:11:40.414Z,74.31
2018-09-15T19:14:10.542Z,74.79
2018-09-15T19:16:40.406Z,75.30
2018-09-15T19:19:09.341Z,74.80
2018-09-15T19:21:39.238Z,75.37
2018-09-15T19:24:09.201Z,76.08
2018-09-15T19:26:38.403Z,75.65
2018-09-15T19:29:07.257Z,76.28
2018-09-15T19:31:36.412Z,75.60
2018-09-15T19:34:05.329Z,76.28
2018-09-15T19:36:35.288Z,76.16
2018-09-15T19:39:06.412Z,76.27
2018-09-15T19:41:35.393Z,76.63
2018-09-15T19:44:05.317Z,76.58
2018-09-15T19:46:34.475Z,76.91
2018-09-15T19:49:04.432Z,77.32
2018-09-15T19:51:33.403Z,77.27
2018-09-15T19:54:03.343Z,77.61
2018-09-15T19:56:33.247Z,78.26
2018-09-15T19:59:03.272Z,77.77
2018-09-15T20:01:32.147Z,78.00
2018-09-15T20:04:02.102Z,78.41
2018-09-15T20:06:32.054Z,77.75
2018-09-15T20:09:00.970Z,77.89
2018-09-15T20:11:30.891Z,78.03
2018-09-15T20:13:59.865Z,78.39
2018-09-15T20:16:27.751Z,79.07
2018-09-15T20:18:56.672Z,78.94
2018-09-15T20:21:24.460Z,79.30
2018-09-15T20:23:53.469Z,78.98
2018-09-15T20:26:22.400Z,79.51
2018-09-15T20:28:53.358Z,79.45
2018-09-15T20:31:22.463Z,79.28
2018-09-15T20:33:51.415Z,79.36
2018-09-15T20:36:20.552Z,79.97
2018-09-15T20:38:50.623Z,79.78
2018-09-15T20:41:19.633Z,80.53
2018-09-15T20:43:49.524Z,80.45
2018-09-15T20:46:18.414Z,79.96
2018-09-15T20:48:48.369Z,79.98
2018-09-15T20:51:17.322Z,80.07
2018-09-15T20:53:46.220Z,79.13
2018-09-15T20:56:15.270Z,79.83
2018-09-15T20:58:44.207Z,80.34
2018-09-15T21:01:13.220Z,81.12
2018-09-15T21:03:42.465Z,80.45
2018-09-15T21:06:11.434Z,80.63
2018-09-15T21:08:40.356Z,81.23
2018-09-15T21:11:09.256Z,81.34
2018-09-15T21:13:38.180Z,81.46
2018-09-15T21:16:07.403Z,81.57
2018-09-15T21:18:36.539Z,81.49
2018-09-15T21:21:05.462Z,81.88
2018-09-15T21:23:34.416Z,81.18
2018-09-15T21:26:03.288Z,81.43
2018-09-15T21:28:32.171Z,81.44
2018-09-15T21:31:01.133Z,81.30
2018-09-15T21:33:30.109Z,82.19
2018-09-15T21:35:58.981Z,82.42
2018-09-15T21:38:27.901Z,81.71
2018-09-15T21:40:56.817Z,83.06
2018-09-15T21:43:25.742Z,82.69
2018-09-15T21:45:54.666Z,82.55
2018-09-15T21:48:24.583Z,82.98
2018-09-15T21:50:53.604Z,83.04
2018-09-15T21:53:22.584Z,82.14
2018-09-15T21:55:51.615Z,82.94
2018-09-15T21:58:20.599Z,83.92
2018-09-15T22:00:50.788Z,83.15
2018-09-15T22:03:23.281Z,83.63
2018-09-15T22:05:53.242Z,83.62
2018-09-15T22:08:23.203Z,83.19
2018-09-15T22:10:52.631Z,83.07
2018-09-15T22:13:21.646Z,83.09
2018-09-15T22:15:50.824Z,83.24
2018-09-15T22:18:19.800Z,83.07
2018-09-15T22:20:49.770Z,83.25
2018-09-15T22:23:19.767Z,83.85
2018-09-15T22:25:48.710Z,84.09
2018-09-15T22:28:17.685Z,84.75
2018-09-15T22:30:48.646Z,84.64
2018-09-15T22:33:17.795Z,84.32
2018-09-15T22:35:46.696Z,84.97
2018-09-15T22:38:15.643Z,84.31
2018-09-15T22:40:44.602Z,84.98
2018-09-15T22:43:13.569Z,84.72
2018-09-15T22:45:42.531Z,85.01
2018-09-15T22:48:11.438Z,84.85
2018-09-15T22:50:41.423Z,85.19
2018-09-15T22:53:10.465Z,84.96
2018-09-15T22:55:39.457Z,84.33
2018-09-15T22:58:09.420Z,85.05
2018-09-15T23:00:38.595Z,86.51
2018-09-15T23:03:07.486Z,85.13
2018-09-15T23:05:37.481Z,85.38
2018-09-15T23:08:06.484Z,85.57
2018-09-15T23:10:35.516Z,85.26
2018-09-15T23:13:04.410Z,85.47
2018-09-15T23:15:33.498Z,84.96
2018-09-15T23:18:02.493Z,85.84
2018-09-15T23:20:31.625Z,85.87
2018-09-15T23:23:00.638Z,85.39
2018-09-15T23:25:29.542Z,85.16
2018-09-15T23:27:59.624Z,86.19
2018-09-15T23:30:29.664Z,85.92
2018-09-15T23:32:58.601Z,85.36
2018-09-15T23:35:27.848Z,86.39
2018-09-15T23:37:56.803Z,85.72
2018-09-15T23:40:26.101Z,85.82
2018-09-15T23:42:55.085Z,86.33
2018-09-15T23:45:24.409Z,86.08
2018-09-15T23:47:54.385Z,86.01
2018-09-15T23:50:23.373Z,85.53
2018-09-15T23:52:52.264Z,85.93
2018-09-15T23:55:21.246Z,86.06
2018-09-15T23:57:50.260Z,86.59
